首页
METAR-TAF:

METAR-TAF

机场 :

阿勒, 土耳其

纬度: 39-39-16N, 经度: 43-01-38E, 海拔: 1665米

当前天气观测

该预报发布于16分钟前的14:50 UTC
风速12节,风向西
温度 21°C
湿度 33%
气压 1016 hPa
能见度10公里或以上
少量云层高于4000英尺
散云层高于12000英尺

METAR: LTCO 011450Z 26012KT 9999 FEW040 SCT120 21/04 Q1016

时间: 18:06 (15:06 UTC)

预报

该预报发布于1小时和26分钟前的13:40 UTC
预报有效从01日的 15点(UTC)到 01日的 24点(UTC)
风速12节,风向西转西南
能见度10公里或以上
少量云层高于3000英尺, 积雨云.
散云层高于4000英尺
多云层高于12000英尺
成为
从 01日的 15点(UTC)到 01日的 17点(UTC)
风速2节,风向多变
散云层高于10000英尺
成为
从 01日的 18点(UTC)到 01日的 20点(UTC)
能见度10公里或以上
1500米以下无云,无积雨云

TAF: LTCO 011340Z 0115/0124 24012KT 9999 FEW030CB SCT040 BKN120 BECMG 0115/0117 VRB02KT SCT100 BECMG 0118/0120 CAVOK

超过4000个机场的气象观测和天气预报(METAR&TAF报告)。

可查询的气象台以黄色和红色小点在地图上表示。

将鼠标移到小点上方,可查看气象台名称。

然后点击查看天气观测和预报。

如需切换地图:点击带黑十字的绿色按钮放大地图;点击带横线的绿色按钮缩小地图;或者点击绿色箭头查看邻近地区的地图。


METAR-TAF: